sensor_id;sensor_type;location;lat;lon;timestamp;P1;durP1;ratioP1;P2;durP2;ratioP2
30127;SDS011;16942;53.196;6.592;2023-08-20T00:01:38;5.57;;;2.83;;
30127;SDS011;16942;53.196;6.592;2023-08-20T00:04:04;5.97;;;3.40;;
30127;SDS011;16942;53.196;6.592;2023-08-20T00:06:30;6.13;;;2.93;;
30127;SDS011;16942;53.196;6.592;2023-08-20T00:08:57;6.07;;;3.23;;
30127;SDS011;16942;53.196;6.592;2023-08-20T00:11:23;6.93;;;2.73;;
30127;SDS011;16942;53.196;6.592;2023-08-20T00:13:49;10.93;;;3.70;;
30127;SDS011;16942;53.196;6.592;2023-08-20T00:16:15;6.63;;;3.10;;
30127;SDS011;16942;53.196;6.592;2023-08-20T00:18:41;9.50;;;2.83;;
30127;SDS011;16942;53.196;6.592;2023-08-20T00:21:08;5.53;;;2.70;;
30127;SDS011;16942;53.196;6.592;2023-08-20T00:23:35;9.73;;;3.33;;
30127;SDS011;16942;53.196;6.592;2023-08-20T00:26:01;6.67;;;3.10;;
30127;SDS011;16942;53.196;6.592;2023-08-20T00:28:27;7.63;;;3.10;;
30127;SDS011;16942;53.196;6.592;2023-08-20T00:30:53;7.17;;;3.30;;
30127;SDS011;16942;53.196;6.592;2023-08-20T00:33:19;7.97;;;2.77;;
30127;SDS011;16942;53.196;6.592;2023-08-20T00:35:45;5.93;;;3.13;;
30127;SDS011;16942;53.196;6.592;2023-08-20T00:38:11;6.27;;;3.10;;
30127;SDS011;16942;53.196;6.592;2023-08-20T00:40:37;5.80;;;3.30;;
30127;SDS011;16942;53.196;6.592;2023-08-20T00:43:03;7.13;;;3.23;;
30127;SDS011;16942;53.196;6.592;2023-08-20T00:45:30;7.57;;;2.87;;
30127;SDS011;16942;53.196;6.592;2023-08-20T00:47:56;8.30;;;3.00;;
30127;SDS011;16942;53.196;6.592;2023-08-20T00:50:22;5.43;;;3.13;;
30127;SDS011;16942;53.196;6.592;2023-08-20T00:52:48;5.57;;;3.07;;
30127;SDS011;16942;53.196;6.592;2023-08-20T00:55:14;6.70;;;3.50;;
30127;SDS011;16942;53.196;6.592;2023-08-20T00:57:41;4.27;;;3.00;;
30127;SDS011;16942;53.196;6.592;2023-08-20T01:00:07;7.17;;;3.13;;
30127;SDS011;16942;53.196;6.592;2023-08-20T01:02:34;5.77;;;3.37;;
30127;SDS011;16942;53.196;6.592;2023-08-20T01:05:00;5.43;;;2.83;;
30127;SDS011;16942;53.196;6.592;2023-08-20T01:10:14;11.83;;;3.10;;
30127;SDS011;16942;53.196;6.592;2023-08-20T01:12:43;6.33;;;3.00;;
30127;SDS011;16942;53.196;6.592;2023-08-20T01:15:09;6.93;;;3.10;;
30127;SDS011;16942;53.196;6.592;2023-08-20T01:17:42;7.47;;;3.07;;
30127;SDS011;16942;53.196;6.592;2023-08-20T01:20:09;7.80;;;3.27;;
30127;SDS011;16942;53.196;6.592;2023-08-20T01:28:03;4.63;;;2.60;;
30127;SDS011;16942;53.196;6.592;2023-08-20T01:30:33;6.17;;;2.97;;
30127;SDS011;16942;53.196;6.592;2023-08-20T01:33:00;7.00;;;3.40;;
30127;SDS011;16942;53.196;6.592;2023-08-20T01:35:26;6.77;;;3.10;;
30127;SDS011;16942;53.196;6.592;2023-08-20T01:37:52;5.53;;;2.70;;
30127;SDS011;16942;53.196;6.592;2023-08-20T01:40:18;8.13;;;2.87;;
30127;SDS011;16942;53.196;6.592;2023-08-20T01:42:45;10.23;;;3.13;;
30127;SDS011;16942;53.196;6.592;2023-08-20T01:45:11;3.93;;;2.67;;
30127;SDS011;16942;53.196;6.592;2023-08-20T01:47:37;6.50;;;2.63;;
30127;SDS011;16942;53.196;6.592;2023-08-20T01:50:03;7.77;;;3.83;;
30127;SDS011;16942;53.196;6.592;2023-08-20T01:52:29;6.53;;;2.63;;
30127;SDS011;16942;53.196;6.592;2023-08-20T01:54:55;4.37;;;2.60;;
30127;SDS011;16942;53.196;6.592;2023-08-20T01:57:21;12.83;;;4.57;;
30127;SDS011;16942;53.196;6.592;2023-08-20T01:59:47;10.00;;;3.50;;
30127;SDS011;16942;53.196;6.592;2023-08-20T02:02:13;10.43;;;3.43;;
30127;SDS011;16942;53.196;6.592;2023-08-20T02:04:39;9.30;;;3.70;;
30127;SDS011;16942;53.196;6.592;2023-08-20T02:07:05;10.77;;;3.10;;
30127;SDS011;16942;53.196;6.592;2023-08-20T02:09:32;5.23;;;3.23;;
30127;SDS011;16942;53.196;6.592;2023-08-20T02:11:58;9.80;;;3.60;;
30127;SDS011;16942;53.196;6.592;2023-08-20T02:14:24;11.97;;;3.90;;
30127;SDS011;16942;53.196;6.592;2023-08-20T02:16:52;6.63;;;3.63;;
30127;SDS011;16942;53.196;6.592;2023-08-20T02:19:18;6.50;;;3.83;;
30127;SDS011;16942;53.196;6.592;2023-08-20T02:21:44;6.67;;;3.80;;
30127;SDS011;16942;53.196;6.592;2023-08-20T02:24:10;9.67;;;3.80;;
30127;SDS011;16942;53.196;6.592;2023-08-20T02:26:36;6.93;;;3.87;;
30127;SDS011;16942;53.196;6.592;2023-08-20T02:29:02;9.37;;;4.20;;
30127;SDS011;16942;53.196;6.592;2023-08-20T02:31:30;9.27;;;4.27;;
30127;SDS011;16942;53.196;6.592;2023-08-20T02:33:56;14.00;;;6.90;;
30127;SDS011;16942;53.196;6.592;2023-08-20T02:36:22;10.13;;;5.30;;
30127;SDS011;16942;53.196;6.592;2023-08-20T02:38:48;10.33;;;5.80;;
30127;SDS011;16942;53.196;6.592;2023-08-20T02:41:14;11.87;;;5.13;;
30127;SDS011;16942;53.196;6.592;2023-08-20T02:43:40;11.80;;;6.43;;
30127;SDS011;16942;53.196;6.592;2023-08-20T02:46:06;12.30;;;5.93;;
30127;SDS011;16942;53.196;6.592;2023-08-20T02:48:32;12.33;;;5.70;;
30127;SDS011;16942;53.196;6.592;2023-08-20T02:50:58;13.63;;;6.70;;
30127;SDS011;16942;53.196;6.592;2023-08-20T02:53:24;11.30;;;6.40;;
30127;SDS011;16942;53.196;6.592;2023-08-20T02:55:50;12.20;;;6.40;;
30127;SDS011;16942;53.196;6.592;2023-08-20T02:58:17;14.00;;;6.57;;
30127;SDS011;16942;53.196;6.592;2023-08-20T03:00:43;18.47;;;7.77;;
30127;SDS011;16942;53.196;6.592;2023-08-20T03:03:10;16.57;;;7.17;;
30127;SDS011;16942;53.196;6.592;2023-08-20T03:05:36;16.57;;;7.27;;
30127;SDS011;16942;53.196;6.592;2023-08-20T03:08:02;14.23;;;7.20;;
30127;SDS011;16942;53.196;6.592;2023-08-20T03:10:31;12.13;;;6.93;;
30127;SDS011;16942;53.196;6.592;2023-08-20T03:13:00;11.90;;;7.47;;
30127;SDS011;16942;53.196;6.592;2023-08-20T03:15:27;14.97;;;6.67;;
30127;SDS011;16942;53.196;6.592;2023-08-20T03:17:53;14.13;;;6.77;;
30127;SDS011;16942;53.196;6.592;2023-08-20T03:20:19;15.07;;;6.30;;
30127;SDS011;16942;53.196;6.592;2023-08-20T03:22:45;9.17;;;6.93;;
30127;SDS011;16942;53.196;6.592;2023-08-20T03:25:11;13.17;;;7.80;;
30127;SDS011;16942;53.196;6.592;2023-08-20T03:27:37;14.53;;;6.77;;
30127;SDS011;16942;53.196;6.592;2023-08-20T03:30:04;13.30;;;6.60;;
30127;SDS011;16942;53.196;6.592;2023-08-20T03:32:30;15.97;;;6.40;;
30127;SDS011;16942;53.196;6.592;2023-08-20T03:34:57;12.10;;;7.20;;
30127;SDS011;16942;53.196;6.592;2023-08-20T03:37:24;15.57;;;6.83;;
30127;SDS011;16942;53.196;6.592;2023-08-20T03:39:50;9.90;;;6.30;;
30127;SDS011;16942;53.196;6.592;2023-08-20T03:42:16;12.90;;;6.40;;
30127;SDS011;16942;53.196;6.592;2023-08-20T03:44:43;13.87;;;6.83;;
30127;SDS011;16942;53.196;6.592;2023-08-20T03:47:09;11.17;;;6.10;;
30127;SDS011;16942;53.196;6.592;2023-08-20T03:49:35;13.63;;;6.27;;
30127;SDS011;16942;53.196;6.592;2023-08-20T03:52:01;12.90;;;6.43;;
30127;SDS011;16942;53.196;6.592;2023-08-20T03:54:28;13.67;;;6.70;;
30127;SDS011;16942;53.196;6.592;2023-08-20T03:56:54;10.73;;;6.20;;
30127;SDS011;16942;53.196;6.592;2023-08-20T03:59:20;12.33;;;5.93;;
30127;SDS011;16942;53.196;6.592;2023-08-20T04:01:46;11.87;;;5.97;;
30127;SDS011;16942;53.196;6.592;2023-08-20T04:04:13;12.10;;;5.80;;
30127;SDS011;16942;53.196;6.592;2023-08-20T04:06:38;13.93;;;7.00;;
30127;SDS011;16942;53.196;6.592;2023-08-20T04:09:04;13.13;;;6.67;;
30127;SDS011;16942;53.196;6.592;2023-08-20T04:11:31;13.57;;;6.80;;
30127;SDS011;16942;53.196;6.592;2023-08-20T04:13:57;12.10;;;5.70;;
30127;SDS011;16942;53.196;6.592;2023-08-20T04:16:24;13.47;;;5.67;;
30127;SDS011;16942;53.196;6.592;2023-08-20T04:18:50;9.77;;;4.60;;
30127;SDS011;16942;53.196;6.592;2023-08-20T04:21:16;12.17;;;4.30;;
30127;SDS011;16942;53.196;6.592;2023-08-20T04:23:42;14.50;;;6.17;;
30127;SDS011;16942;53.196;6.592;2023-08-20T04:26:08;14.33;;;5.30;;
30127;SDS011;16942;53.196;6.592;2023-08-20T04:28:34;17.27;;;5.77;;
30127;SDS011;16942;53.196;6.592;2023-08-20T04:31:00;15.00;;;5.43;;
30127;SDS011;16942;53.196;6.592;2023-08-20T04:33:27;9.13;;;4.93;;
30127;SDS011;16942;53.196;6.592;2023-08-20T04:35:53;14.07;;;6.07;;
30127;SDS011;16942;53.196;6.592;2023-08-20T04:38:19;10.97;;;4.83;;
30127;SDS011;16942;53.196;6.592;2023-08-20T04:40:46;8.47;;;4.70;;
30127;SDS011;16942;53.196;6.592;2023-08-20T04:43:12;7.17;;;4.70;;
30127;SDS011;16942;53.196;6.592;2023-08-20T04:45:38;8.03;;;5.10;;
30127;SDS011;16942;53.196;6.592;2023-08-20T04:48:04;12.50;;;5.27;;
30127;SDS011;16942;53.196;6.592;2023-08-20T04:50:30;8.57;;;5.40;;
30127;SDS011;16942;53.196;6.592;2023-08-20T04:52:56;11.83;;;5.27;;
30127;SDS011;16942;53.196;6.592;2023-08-20T04:55:25;12.30;;;5.80;;
30127;SDS011;16942;53.196;6.592;2023-08-20T04:57:51;13.17;;;5.80;;
30127;SDS011;16942;53.196;6.592;2023-08-20T05:00:17;9.03;;;5.37;;
30127;SDS011;16942;53.196;6.592;2023-08-20T05:02:43;25.40;;;8.20;;
30127;SDS011;16942;53.196;6.592;2023-08-20T05:05:10;12.23;;;5.50;;
30127;SDS011;16942;53.196;6.592;2023-08-20T05:07:36;13.30;;;5.80;;
30127;SDS011;16942;53.196;6.592;2023-08-20T05:10:02;14.63;;;6.13;;
30127;SDS011;16942;53.196;6.592;2023-08-20T05:12:28;8.43;;;5.00;;
30127;SDS011;16942;53.196;6.592;2023-08-20T05:14:54;10.07;;;5.33;;
30127;SDS011;16942;53.196;6.592;2023-08-20T05:17:20;13.37;;;6.30;;
30127;SDS011;16942;53.196;6.592;2023-08-20T05:19:46;12.20;;;5.50;;
30127;SDS011;16942;53.196;6.592;2023-08-20T05:22:12;10.07;;;5.43;;
30127;SDS011;16942;53.196;6.592;2023-08-20T05:24:38;9.33;;;5.00;;
30127;SDS011;16942;53.196;6.592;2023-08-20T05:27:12;10.27;;;5.10;;
30127;SDS011;16942;53.196;6.592;2023-08-20T05:29:45;14.03;;;5.80;;
30127;SDS011;16942;53.196;6.592;2023-08-20T05:32:11;11.00;;;5.60;;
30127;SDS011;16942;53.196;6.592;2023-08-20T05:34:37;11.87;;;6.00;;
30127;SDS011;16942;53.196;6.592;2023-08-20T05:37:03;8.43;;;4.67;;
30127;SDS011;16942;53.196;6.592;2023-08-20T05:39:29;11.57;;;5.10;;
30127;SDS011;16942;53.196;6.592;2023-08-20T05:41:56;7.77;;;4.80;;
30127;SDS011;16942;53.196;6.592;2023-08-20T05:44:22;9.93;;;5.30;;
30127;SDS011;16942;53.196;6.592;2023-08-20T05:46:48;14.70;;;5.83;;
30127;SDS011;16942;53.196;6.592;2023-08-20T05:49:14;12.93;;;5.33;;
30127;SDS011;16942;53.196;6.592;2023-08-20T05:51:43;16.73;;;5.60;;
30127;SDS011;16942;53.196;6.592;2023-08-20T05:54:09;14.23;;;5.30;;
30127;SDS011;16942;53.196;6.592;2023-08-20T05:56:36;13.17;;;5.27;;
30127;SDS011;16942;53.196;6.592;2023-08-20T05:59:02;15.67;;;5.67;;
30127;SDS011;16942;53.196;6.592;2023-08-20T06:01:28;15.27;;;5.53;;
30127;SDS011;16942;53.196;6.592;2023-08-20T06:03:54;9.03;;;5.00;;
30127;SDS011;16942;53.196;6.592;2023-08-20T06:06:20;44.30;;;13.57;;
30127;SDS011;16942;53.196;6.592;2023-08-20T06:08:46;31.07;;;8.63;;
30127;SDS011;16942;53.196;6.592;2023-08-20T06:11:13;79.33;;;17.10;;
30127;SDS011;16942;53.196;6.592;2023-08-20T06:13:39;29.30;;;9.00;;
30127;SDS011;16942;53.196;6.592;2023-08-20T06:16:06;15.40;;;6.87;;
30127;SDS011;16942;53.196;6.592;2023-08-20T06:18:32;13.17;;;5.50;;
30127;SDS011;16942;53.196;6.592;2023-08-20T06:20:58;32.17;;;8.27;;
30127;SDS011;16942;53.196;6.592;2023-08-20T06:23:24;11.30;;;5.60;;
30127;SDS011;16942;53.196;6.592;2023-08-20T06:25:50;8.87;;;5.43;;
30127;SDS011;16942;53.196;6.592;2023-08-20T06:28:17;14.23;;;6.17;;
30127;SDS011;16942;53.196;6.592;2023-08-20T06:30:44;17.70;;;6.80;;
30127;SDS011;16942;53.196;6.592;2023-08-20T06:33:10;12.93;;;5.97;;
30127;SDS011;16942;53.196;6.592;2023-08-20T06:35:36;15.43;;;5.80;;
30127;SDS011;16942;53.196;6.592;2023-08-20T06:38:02;15.40;;;5.47;;
30127;SDS011;16942;53.196;6.592;2023-08-20T06:40:28;15.17;;;6.03;;
30127;SDS011;16942;53.196;6.592;2023-08-20T06:42:54;11.47;;;5.23;;
30127;SDS011;16942;53.196;6.592;2023-08-20T06:45:20;12.10;;;5.60;;
30127;SDS011;16942;53.196;6.592;2023-08-20T06:47:46;18.83;;;5.70;;
30127;SDS011;16942;53.196;6.592;2023-08-20T06:50:12;12.47;;;5.10;;
30127;SDS011;16942;53.196;6.592;2023-08-20T06:52:38;9.90;;;4.97;;
30127;SDS011;16942;53.196;6.592;2023-08-20T06:55:04;17.67;;;5.00;;
30127;SDS011;16942;53.196;6.592;2023-08-20T06:57:30;11.53;;;5.70;;
30127;SDS011;16942;53.196;6.592;2023-08-20T06:59:56;12.60;;;5.07;;
30127;SDS011;16942;53.196;6.592;2023-08-20T07:02:22;19.90;;;5.57;;
30127;SDS011;16942;53.196;6.592;2023-08-20T07:04:48;18.20;;;6.70;;
30127;SDS011;16942;53.196;6.592;2023-08-20T07:07:14;10.60;;;4.70;;
30127;SDS011;16942;53.196;6.592;2023-08-20T07:09:41;11.93;;;4.70;;
30127;SDS011;16942;53.196;6.592;2023-08-20T07:12:07;10.40;;;5.20;;
30127;SDS011;16942;53.196;6.592;2023-08-20T07:14:33;15.83;;;5.93;;
30127;SDS011;16942;53.196;6.592;2023-08-20T07:16:59;14.53;;;4.63;;
30127;SDS011;16942;53.196;6.592;2023-08-20T07:19:27;12.23;;;4.90;;
30127;SDS011;16942;53.196;6.592;2023-08-20T07:21:53;14.33;;;5.20;;
30127;SDS011;16942;53.196;6.592;2023-08-20T07:24:19;15.17;;;4.17;;
30127;SDS011;16942;53.196;6.592;2023-08-20T07:26:50;8.60;;;4.10;;
30127;SDS011;16942;53.196;6.592;2023-08-20T07:29:16;14.97;;;4.53;;
30127;SDS011;16942;53.196;6.592;2023-08-20T07:31:42;11.83;;;4.37;;
30127;SDS011;16942;53.196;6.592;2023-08-20T07:34:08;13.80;;;3.97;;
30127;SDS011;16942;53.196;6.592;2023-08-20T07:36:34;10.83;;;4.83;;
30127;SDS011;16942;53.196;6.592;2023-08-20T07:39:00;18.17;;;4.27;;
30127;SDS011;16942;53.196;6.592;2023-08-20T07:41:26;14.73;;;3.90;;
30127;SDS011;16942;53.196;6.592;2023-08-20T07:43:52;8.30;;;3.40;;
30127;SDS011;16942;53.196;6.592;2023-08-20T07:46:18;16.67;;;4.30;;
30127;SDS011;16942;53.196;6.592;2023-08-20T07:48:44;9.50;;;3.70;;
30127;SDS011;16942;53.196;6.592;2023-08-20T07:51:11;18.40;;;4.90;;
30127;SDS011;16942;53.196;6.592;2023-08-20T07:53:37;14.33;;;3.60;;
30127;SDS011;16942;53.196;6.592;2023-08-20T07:56:03;18.47;;;4.17;;
30127;SDS011;16942;53.196;6.592;2023-08-20T07:58:29;16.97;;;4.20;;
30127;SDS011;16942;53.196;6.592;2023-08-20T08:00:55;12.53;;;3.40;;
30127;SDS011;16942;53.196;6.592;2023-08-20T08:03:21;12.73;;;3.53;;
30127;SDS011;16942;53.196;6.592;2023-08-20T08:05:48;9.03;;;3.80;;
30127;SDS011;16942;53.196;6.592;2023-08-20T08:08:15;13.60;;;3.37;;
30127;SDS011;16942;53.196;6.592;2023-08-20T08:10:41;17.37;;;3.33;;
30127;SDS011;16942;53.196;6.592;2023-08-20T08:13:09;10.97;;;2.70;;
30127;SDS011;16942;53.196;6.592;2023-08-20T08:15:35;9.73;;;2.80;;
30127;SDS011;16942;53.196;6.592;2023-08-20T08:18:01;16.97;;;3.30;;
30127;SDS011;16942;53.196;6.592;2023-08-20T08:20:28;10.83;;;3.37;;
30127;SDS011;16942;53.196;6.592;2023-08-20T08:22:54;9.97;;;2.73;;
30127;SDS011;16942;53.196;6.592;2023-08-20T08:25:20;15.27;;;3.57;;
30127;SDS011;16942;53.196;6.592;2023-08-20T08:27:46;12.38;;;3.28;;
30127;SDS011;16942;53.196;6.592;2023-08-20T08:30:13;12.50;;;2.97;;
30127;SDS011;16942;53.196;6.592;2023-08-20T08:32:39;10.07;;;3.10;;
30127;SDS011;16942;53.196;6.592;2023-08-20T08:35:05;9.55;;;2.50;;
30127;SDS011;16942;53.196;6.592;2023-08-20T08:37:32;8.90;;;2.75;;
30127;SDS011;16942;53.196;6.592;2023-08-20T08:39:58;8.13;;;2.63;;
30127;SDS011;16942;53.196;6.592;2023-08-20T08:42:24;11.73;;;2.25;;
30127;SDS011;16942;53.196;6.592;2023-08-20T08:44:50;8.38;;;2.90;;
30127;SDS011;16942;53.196;6.592;2023-08-20T08:47:17;8.25;;;2.20;;
30127;SDS011;16942;53.196;6.592;2023-08-20T08:49:44;8.45;;;2.28;;
30127;SDS011;16942;53.196;6.592;2023-08-20T08:52:11;9.00;;;2.00;;
30127;SDS011;16942;53.196;6.592;2023-08-20T08:54:37;11.80;;;2.15;;
30127;SDS011;16942;53.196;6.592;2023-08-20T08:57:04;9.60;;;2.30;;
30127;SDS011;16942;53.196;6.592;2023-08-20T08:59:30;9.70;;;2.33;;
30127;SDS011;16942;53.196;6.592;2023-08-20T09:01:56;10.55;;;2.78;;
30127;SDS011;16942;53.196;6.592;2023-08-20T09:04:23;5.35;;;1.65;;
30127;SDS011;16942;53.196;6.592;2023-08-20T09:09:16;13.50;;;3.20;;
30127;SDS011;16942;53.196;6.592;2023-08-20T09:11:42;9.82;;;2.45;;
30127;SDS011;16942;53.196;6.592;2023-08-20T09:14:20;7.00;;;2.17;;
30127;SDS011;16942;53.196;6.592;2023-08-20T09:16:46;11.40;;;2.65;;
30127;SDS011;16942;53.196;6.592;2023-08-20T09:19:13;7.00;;;1.77;;
30127;SDS011;16942;53.196;6.592;2023-08-20T09:21:39;6.97;;;1.77;;
30127;SDS011;16942;53.196;6.592;2023-08-20T09:24:05;10.55;;;1.38;;
30127;SDS011;16942;53.196;6.592;2023-08-20T09:26:31;11.38;;;1.80;;
30127;SDS011;16942;53.196;6.592;2023-08-20T09:28:57;9.43;;;2.08;;
30127;SDS011;16942;53.196;6.592;2023-08-20T09:31:36;8.18;;;1.90;;
30127;SDS011;16942;53.196;6.592;2023-08-20T09:34:02;7.55;;;1.73;;
30127;SDS011;16942;53.196;6.592;2023-08-20T09:36:32;7.53;;;2.05;;
30127;SDS011;16942;53.196;6.592;2023-08-20T09:38:59;6.47;;;1.52;;
30127;SDS011;16942;53.196;6.592;2023-08-20T09:41:25;6.55;;;1.95;;
30127;SDS011;16942;53.196;6.592;2023-08-20T09:43:57;11.57;;;1.75;;
30127;SDS011;16942;53.196;6.592;2023-08-20T09:46:24;8.20;;;2.70;;
30127;SDS011;16942;53.196;6.592;2023-08-20T09:48:51;6.90;;;1.40;;
30127;SDS011;16942;53.196;6.592;2023-08-20T09:51:18;11.13;;;1.80;;
30127;SDS011;16942;53.196;6.592;2023-08-20T09:53:53;4.60;;;1.63;;
30127;SDS011;16942;53.196;6.592;2023-08-20T09:56:24;8.95;;;1.63;;
30127;SDS011;16942;53.196;6.592;2023-08-20T09:58:53;8.23;;;2.38;;
30127;SDS011;16942;53.196;6.592;2023-08-20T10:01:20;7.97;;;1.75;;
30127;SDS011;16942;53.196;6.592;2023-08-20T10:03:46;8.68;;;1.80;;
30127;SDS011;16942;53.196;6.592;2023-08-20T10:06:12;5.35;;;1.70;;
30127;SDS011;16942;53.196;6.592;2023-08-20T10:08:38;5.75;;;2.05;;
30127;SDS011;16942;53.196;6.592;2023-08-20T10:11:04;8.63;;;2.33;;
30127;SDS011;16942;53.196;6.592;2023-08-20T10:13:30;6.55;;;1.90;;
30127;SDS011;16942;53.196;6.592;2023-08-20T10:15:57;6.72;;;1.48;;
30127;SDS011;16942;53.196;6.592;2023-08-20T10:18:23;5.13;;;1.73;;
30127;SDS011;16942;53.196;6.592;2023-08-20T10:20:50;9.07;;;1.92;;
30127;SDS011;16942;53.196;6.592;2023-08-20T10:23:17;7.32;;;2.00;;
30127;SDS011;16942;53.196;6.592;2023-08-20T10:25:45;5.93;;;1.65;;
30127;SDS011;16942;53.196;6.592;2023-08-20T10:28:27;11.10;;;2.20;;
30127;SDS011;16942;53.196;6.592;2023-08-20T10:33:50;4.70;;;1.73;;
30127;SDS011;16942;53.196;6.592;2023-08-20T10:36:20;7.20;;;1.55;;
30127;SDS011;16942;53.196;6.592;2023-08-20T10:38:56;4.15;;;1.52;;
30127;SDS011;16942;53.196;6.592;2023-08-20T10:41:29;5.90;;;1.52;;
30127;SDS011;16942;53.196;6.592;2023-08-20T10:43:58;7.68;;;2.25;;
30127;SDS011;16942;53.196;6.592;2023-08-20T10:46:25;7.18;;;1.95;;
30127;SDS011;16942;53.196;6.592;2023-08-20T10:48:52;7.22;;;1.90;;
30127;SDS011;16942;53.196;6.592;2023-08-20T10:51:40;8.18;;;1.95;;
30127;SDS011;16942;53.196;6.592;2023-08-20T10:54:06;5.43;;;1.70;;
30127;SDS011;16942;53.196;6.592;2023-08-20T10:56:38;10.68;;;1.92;;
30127;SDS011;16942;53.196;6.592;2023-08-20T10:59:05;6.03;;;1.85;;
30127;SDS011;16942;53.196;6.592;2023-08-20T11:01:33;6.35;;;1.73;;
30127;SDS011;16942;53.196;6.592;2023-08-20T11:03:59;5.20;;;1.58;;
30127;SDS011;16942;53.196;6.592;2023-08-20T11:06:30;3.42;;;1.55;;
30127;SDS011;16942;53.196;6.592;2023-08-20T11:08:59;8.18;;;2.03;;
30127;SDS011;16942;53.196;6.592;2023-08-20T11:11:25;3.53;;;1.33;;
30127;SDS011;16942;53.196;6.592;2023-08-20T11:13:51;3.85;;;1.30;;
30127;SDS011;16942;53.196;6.592;2023-08-20T11:16:17;4.38;;;1.50;;
30127;SDS011;16942;53.196;6.592;2023-08-20T11:18:45;2.53;;;1.05;;
30127;SDS011;16942;53.196;6.592;2023-08-20T11:21:11;7.07;;;1.45;;
30127;SDS011;16942;53.196;6.592;2023-08-20T11:23:38;7.55;;;1.45;;
30127;SDS011;16942;53.196;6.592;2023-08-20T11:26:07;9.10;;;1.65;;
30127;SDS011;16942;53.196;6.592;2023-08-20T11:28:33;4.53;;;1.25;;
30127;SDS011;16942;53.196;6.592;2023-08-20T11:30:59;5.63;;;1.45;;
30127;SDS011;16942;53.196;6.592;2023-08-20T11:33:26;3.13;;;1.15;;
30127;SDS011;16942;53.196;6.592;2023-08-20T11:35:52;5.90;;;1.23;;
30127;SDS011;16942;53.196;6.592;2023-08-20T11:38:19;3.20;;;1.05;;
30127;SDS011;16942;53.196;6.592;2023-08-20T11:40:46;7.70;;;1.83;;
30127;SDS011;16942;53.196;6.592;2023-08-20T11:43:12;1.80;;;1.00;;
30127;SDS011;16942;53.196;6.592;2023-08-20T11:45:45;4.72;;;1.20;;
30127;SDS011;16942;53.196;6.592;2023-08-20T11:48:11;3.35;;;1.38;;
30127;SDS011;16942;53.196;6.592;2023-08-20T11:50:37;8.70;;;1.98;;
30127;SDS011;16942;53.196;6.592;2023-08-20T11:53:03;3.50;;;1.27;;
30127;SDS011;16942;53.196;6.592;2023-08-20T11:55:29;2.38;;;1.02;;
30127;SDS011;16942;53.196;6.592;2023-08-20T11:57:55;3.63;;;1.40;;
30127;SDS011;16942;53.196;6.592;2023-08-20T12:00:25;6.72;;;1.40;;
30127;SDS011;16942;53.196;6.592;2023-08-20T12:02:54;6.03;;;1.23;;
30127;SDS011;16942;53.196;6.592;2023-08-20T12:05:30;7.05;;;1.55;;
30127;SDS011;16942;53.196;6.592;2023-08-20T12:10:23;6.05;;;1.52;;
30127;SDS011;16942;53.196;6.592;2023-08-20T12:12:49;5.18;;;1.33;;
30127;SDS011;16942;53.196;6.592;2023-08-20T12:15:16;4.32;;;1.48;;
30127;SDS011;16942;53.196;6.592;2023-08-20T12:17:43;4.18;;;1.60;;
30127;SDS011;16942;53.196;6.592;2023-08-20T12:20:09;8.40;;;1.50;;
30127;SDS011;16942;53.196;6.592;2023-08-20T12:22:39;7.20;;;1.30;;
30127;SDS011;16942;53.196;6.592;2023-08-20T12:25:05;4.35;;;1.38;;
30127;SDS011;16942;53.196;6.592;2023-08-20T12:27:32;6.03;;;1.88;;
30127;SDS011;16942;53.196;6.592;2023-08-20T12:29:58;4.75;;;1.42;;
30127;SDS011;16942;53.196;6.592;2023-08-20T12:32:24;2.80;;;1.30;;
30127;SDS011;16942;53.196;6.592;2023-08-20T12:34:50;4.25;;;1.38;;
30127;SDS011;16942;53.196;6.592;2023-08-20T12:37:16;5.07;;;1.20;;
30127;SDS011;16942;53.196;6.592;2023-08-20T12:39:42;2.83;;;1.38;;
30127;SDS011;16942;53.196;6.592;2023-08-20T12:42:08;6.18;;;1.48;;
30127;SDS011;16942;53.196;6.592;2023-08-20T12:44:34;5.00;;;1.30;;
30127;SDS011;16942;53.196;6.592;2023-08-20T12:47:00;3.17;;;1.25;;
30127;SDS011;16942;53.196;6.592;2023-08-20T12:49:26;3.13;;;1.20;;
30127;SDS011;16942;53.196;6.592;2023-08-20T12:51:52;4.95;;;1.50;;
30127;SDS011;16942;53.196;6.592;2023-08-20T12:54:18;4.00;;;1.05;;
30127;SDS011;16942;53.196;6.592;2023-08-20T12:56:44;5.82;;;1.52;;
30127;SDS011;16942;53.196;6.592;2023-08-20T12:59:10;2.63;;;1.02;;
30127;SDS011;16942;53.196;6.592;2023-08-20T13:01:36;2.90;;;1.10;;
30127;SDS011;16942;53.196;6.592;2023-08-20T13:04:02;5.82;;;1.58;;
30127;SDS011;16942;53.196;6.592;2023-08-20T13:06:28;4.72;;;1.33;;
30127;SDS011;16942;53.196;6.592;2023-08-20T13:08:55;3.20;;;1.20;;
30127;SDS011;16942;53.196;6.592;2023-08-20T13:11:21;3.20;;;1.60;;
30127;SDS011;16942;53.196;6.592;2023-08-20T13:13:47;4.88;;;1.10;;
30127;SDS011;16942;53.196;6.592;2023-08-20T13:16:18;2.90;;;1.10;;
30127;SDS011;16942;53.196;6.592;2023-08-20T13:18:44;5.43;;;1.50;;
30127;SDS011;16942;53.196;6.592;2023-08-20T13:21:10;3.53;;;1.10;;
30127;SDS011;16942;53.196;6.592;2023-08-20T13:23:36;3.75;;;1.40;;
30127;SDS011;16942;53.196;6.592;2023-08-20T13:26:02;3.03;;;1.23;;
30127;SDS011;16942;53.196;6.592;2023-08-20T13:28:28;3.05;;;1.10;;
30127;SDS011;16942;53.196;6.592;2023-08-20T13:30:54;4.85;;;1.63;;
30127;SDS011;16942;53.196;6.592;2023-08-20T13:33:20;3.78;;;1.45;;
30127;SDS011;16942;53.196;6.592;2023-08-20T13:35:46;3.90;;;1.52;;
30127;SDS011;16942;53.196;6.592;2023-08-20T13:38:12;3.47;;;1.45;;
30127;SDS011;16942;53.196;6.592;2023-08-20T13:40:38;4.63;;;1.33;;
30127;SDS011;16942;53.196;6.592;2023-08-20T13:43:04;6.07;;;1.13;;
30127;SDS011;16942;53.196;6.592;2023-08-20T13:45:31;1.98;;;1.10;;
30127;SDS011;16942;53.196;6.592;2023-08-20T13:47:57;9.85;;;1.50;;
30127;SDS011;16942;53.196;6.592;2023-08-20T13:50:23;2.83;;;1.25;;
30127;SDS011;16942;53.196;6.592;2023-08-20T13:52:49;3.15;;;1.33;;
30127;SDS011;16942;53.196;6.592;2023-08-20T13:55:15;2.95;;;1.20;;
30127;SDS011;16942;53.196;6.592;2023-08-20T13:57:41;1.88;;;1.10;;
30127;SDS011;16942;53.196;6.592;2023-08-20T14:00:07;2.97;;;1.00;;
30127;SDS011;16942;53.196;6.592;2023-08-20T14:02:37;3.53;;;1.20;;
30127;SDS011;16942;53.196;6.592;2023-08-20T14:05:03;5.13;;;1.15;;
30127;SDS011;16942;53.196;6.592;2023-08-20T14:07:29;3.65;;;1.20;;
30127;SDS011;16942;53.196;6.592;2023-08-20T14:09:55;2.70;;;1.30;;
30127;SDS011;16942;53.196;6.592;2023-08-20T14:12:21;6.68;;;1.60;;
30127;SDS011;16942;53.196;6.592;2023-08-20T14:14:47;2.92;;;1.23;;
30127;SDS011;16942;53.196;6.592;2023-08-20T14:17:13;3.63;;;1.38;;
30127;SDS011;16942;53.196;6.592;2023-08-20T14:19:39;4.75;;;1.40;;
30127;SDS011;16942;53.196;6.592;2023-08-20T14:22:05;3.47;;;0.98;;
30127;SDS011;16942;53.196;6.592;2023-08-20T14:24:32;6.90;;;1.50;;
30127;SDS011;16942;53.196;6.592;2023-08-20T14:26:58;5.28;;;1.70;;
30127;SDS011;16942;53.196;6.592;2023-08-20T14:29:24;3.90;;;1.33;;
30127;SDS011;16942;53.196;6.592;2023-08-20T14:31:50;5.22;;;1.50;;
30127;SDS011;16942;53.196;6.592;2023-08-20T14:34:16;4.47;;;1.30;;
30127;SDS011;16942;53.196;6.592;2023-08-20T14:36:42;5.00;;;1.20;;
30127;SDS011;16942;53.196;6.592;2023-08-20T14:39:08;3.53;;;1.30;;
30127;SDS011;16942;53.196;6.592;2023-08-20T14:41:34;3.13;;;1.05;;
30127;SDS011;16942;53.196;6.592;2023-08-20T14:44:00;3.20;;;1.40;;
30127;SDS011;16942;53.196;6.592;2023-08-20T14:46:27;2.72;;;1.00;;
30127;SDS011;16942;53.196;6.592;2023-08-20T14:48:53;4.88;;;1.00;;
30127;SDS011;16942;53.196;6.592;2023-08-20T14:51:20;2.10;;;1.20;;
30127;SDS011;16942;53.196;6.592;2023-08-20T14:53:46;4.82;;;1.23;;
30127;SDS011;16942;53.196;6.592;2023-08-20T14:56:12;4.13;;;1.17;;